Time;durP1;ratioP1;P1;durP2;ratioP2;P2;SDS_P1;SDS_P2;PMS_P1;PMS_P2;Temp;Humidity;BMP_temperature;BMP_pressure;BME280_temperature;BME280_humidity;BME280_pressure;Samples;Min_cycle;Max_cycle;Signal;HPM_P1;HPM_P2
2022/12/23 02:27:10;;;;;;;22.23;14.52;;;11.40;91.90;;;;;;5091532;28;20576;-76
2022/12/23 02:30:04;;;;;;;19.90;14.55;;;11.40;91.90;;;;;;5055215;28;20045;-77
2022/12/23 02:32:48;;;;;;;18.73;14.05;;;11.40;91.80;;;;;;5057049;28;20445;-77
2022/12/23 02:35:23;;;;;;;16.33;12.75;;;11.40;92.10;;;;;;5057387;28;20041;-78
2022/12/23 02:38:04;;;;;;;19.45;12.93;;;11.40;91.90;;;;;;5075147;28;20036;-77
2022/12/23 02:41:08;;;;;;;17.08;13.35;;;11.50;92.00;;;;;;5074983;28;20060;-77
2022/12/23 02:43:40;;;;;;;16.60;12.85;;;11.60;91.80;;;;;;5075120;28;20044;-78
2022/12/23 02:46:29;;;;;;;17.75;12.95;;;11.60;91.90;;;;;;5076165;28;20036;-79
2022/12/23 02:49:05;;;;;;;19.23;12.55;;;11.70;92.00;;;;;;5073746;28;20040;-76
2022/12/23 02:51:35;;;;;;;15.93;13.10;;;11.70;91.70;;;;;;5057036;28;20040;-77
2022/12/23 02:54:05;;;;;;;16.20;12.77;;;11.80;91.90;;;;;;5056780;28;20043;-76
2022/12/23 02:56:34;;;;;;;17.27;12.05;;;11.80;91.70;;;;;;5073754;28;20102;-76
2022/12/23 02:59:14;;;;;;;23.38;12.45;;;11.80;91.70;;;;;;5074742;28;20028;-76
2022/12/23 03:01:41;;;;;;;19.83;13.43;;;11.80;91.80;;;;;;5073817;28;20563;-77
2022/12/23 03:04:07;;;;;;;17.70;12.65;;;11.80;91.70;;;;;;5074310;28;20035;-76
2022/12/23 03:06:42;;;;;;;20.00;13.80;;;11.70;91.70;;;;;;5074310;28;20041;-76
2022/12/23 03:09:07;;;;;;;16.40;13.93;;;11.70;91.70;;;;;;5057234;28;20435;-77
2022/12/23 03:12:01;;;;;;;17.80;13.90;;;11.70;91.70;;;;;;5074517;28;20087;-78
2022/12/23 03:14:49;;;;;;;18.00;13.27;;;11.70;91.70;;;;;;5074258;28;20039;-75
2022/12/23 03:17:30;;;;;;;16.92;13.05;;;11.60;91.50;;;;;;5059497;28;20350;-78
2022/12/23 03:20:12;;;;;;;18.65;13.80;;;11.60;91.60;;;;;;5075983;28;20036;-77
2022/12/23 03:22:52;;;;;;;19.40;14.25;;;11.60;91.60;;;;;;5073553;28;20047;-77
2022/12/23 03:25:25;;;;;;;17.98;14.57;;;11.70;91.70;;;;;;5074787;28;20408;-77
2022/12/23 03:27:59;;;;;;;20.10;15.45;;;11.60;91.80;;;;;;5082200;28;20047;-77
2022/12/23 03:30:25;;;;;;;19.85;15.50;;;11.60;91.60;;;;;;5076359;28;20542;-76
2022/12/23 03:32:50;;;;;;;19.25;14.93;;;11.60;91.80;;;;;;5076353;28;20086;-77
2022/12/23 03:35:20;;;;;;;20.25;15.00;;;11.60;91.70;;;;;;5094623;28;20386;-77
2022/12/23 03:37:49;;;;;;;19.33;14.90;;;11.60;91.90;;;;;;5075716;28;20028;-77
2022/12/23 03:40:51;;;;;;;22.58;14.80;;;11.50;91.90;;;;;;5095118;28;20055;-77
2022/12/23 03:43:26;;;;;;;18.27;14.05;;;11.50;91.90;;;;;;5066216;28;20466;-76
2022/12/23 03:45:58;;;;;;;18.52;14.27;;;11.60;91.90;;;;;;5076807;28;20090;-77
2022/12/23 03:48:38;;;;;;;19.83;13.87;;;11.50;91.80;;;;;;5075508;28;20088;-76
2022/12/23 03:51:13;;;;;;;20.45;14.38;;;11.60;91.70;;;;;;5093980;28;20129;-77
2022/12/23 03:53:47;;;;;;;15.00;13.05;;;11.60;91.80;;;;;;5075545;28;20153;-76
2022/12/23 03:56:19;;;;;;;19.65;14.10;;;11.60;91.80;;;;;;5093891;28;20089;-77
2022/12/23 03:58:57;;;;;;;25.45;15.30;;;11.60;91.80;;;;;;5075738;28;20060;-76
2022/12/23 04:01:23;;;;;;;20.55;14.48;;;11.50;91.50;;;;;;5076109;28;20518;-76
2022/12/23 04:04:07;;;;;;;16.67;14.35;;;11.60;91.70;;;;;;5093491;28;20028;-76
2022/12/23 04:06:42;;;;;;;22.45;16.05;;;11.50;91.90;;;;;;5093707;28;20044;-77
2022/12/23 04:09:10;;;;;;;18.92;15.40;;;11.50;91.80;;;;;;5093783;28;20034;-76
2022/12/23 04:11:35;;;;;;;22.33;15.30;;;11.40;91.90;;;;;;5093474;28;20507;-76
2022/12/23 04:14:01;;;;;;;20.58;16.10;;;11.40;91.70;;;;;;5074171;28;20036;-74
2022/12/23 04:16:28;;;;;;;22.88;16.10;;;11.40;91.80;;;;;;5075156;28;20059;-77
2022/12/23 04:18:54;;;;;;;21.75;16.42;;;11.30;91.80;;;;;;5093478;28;20148;-77
2022/12/23 04:21:20;;;;;;;23.75;17.05;;;11.30;91.90;;;;;;5075604;28;20032;-77
2022/12/23 04:23:46;;;;;;;22.08;16.90;;;11.30;91.90;;;;;;5094293;28;20528;-77
2022/12/23 04:26:11;;;;;;;20.63;16.90;;;11.20;91.80;;;;;;5075464;28;20051;-78
2022/12/23 04:28:37;;;;;;;20.67;15.70;;;11.20;91.90;;;;;;5093461;28;20046;-76
2022/12/23 04:31:03;;;;;;;22.42;17.08;;;11.20;91.90;;;;;;5075704;28;20046;-76
2022/12/23 04:33:29;;;;;;;22.08;16.15;;;11.20;91.90;;;;;;5094365;28;20028;-77
2022/12/23 04:35:54;;;;;;;24.60;17.15;;;11.20;91.90;;;;;;5094752;28;20051;-76
2022/12/23 04:38:20;;;;;;;22.70;18.02;;;11.20;92.00;;;;;;5075521;28;20437;-75
2022/12/23 04:40:46;;;;;;;21.88;16.35;;;11.10;92.00;;;;;;5074918;28;20441;-76
2022/12/23 04:43:12;;;;;;;24.08;18.15;;;11.10;92.00;;;;;;5092735;28;20028;-76
2022/12/23 04:45:37;;;;;;;24.23;17.45;;;11.10;92.00;;;;;;5092582;28;20055;-77
2022/12/23 04:48:03;;;;;;;23.02;17.42;;;11.10;92.00;;;;;;5095805;28;20103;-76
2022/12/23 04:50:29;;;;;;;20.67;16.50;;;11.10;92.10;;;;;;5092845;28;20039;-76
2022/12/23 04:52:55;;;;;;;20.73;17.58;;;11.00;92.00;;;;;;5092740;28;20496;-77
2022/12/23 04:55:20;;;;;;;20.75;16.63;;;11.00;92.10;;;;;;5074619;28;20040;-76
2022/12/23 04:57:46;;;;;;;22.52;16.80;;;11.00;92.00;;;;;;5093051;28;20026;-76
2022/12/23 05:00:13;;;;;;;21.50;17.02;;;11.00;92.10;;;;;;5074547;28;20067;-77
2022/12/23 05:02:38;;;;;;;21.20;16.13;;;10.90;92.00;;;;;;5092559;28;20069;-78
2022/12/23 05:05:05;;;;;;;21.65;16.63;;;11.00;92.10;;;;;;5074329;28;20055;-77
2022/12/23 05:07:30;;;;;;;21.42;15.52;;;10.90;92.00;;;;;;5074322;28;20026;-76
2022/12/23 05:10:00;;;;;;;22.63;16.10;;;10.90;92.10;;;;;;5074830;28;20040;-77
2022/12/23 05:12:29;;;;;;;18.30;14.57;;;11.00;92.30;;;;;;5074674;28;20032;-77
2022/12/23 05:14:55;;;;;;;19.67;15.07;;;10.90;91.90;;;;;;5074366;28;20043;-76
2022/12/23 05:17:21;;;;;;;19.52;14.77;;;10.90;92.20;;;;;;5074524;28;20032;-76
2022/12/23 05:19:47;;;;;;;20.48;14.70;;;10.90;92.20;;;;;;5092475;28;20032;-76
2022/12/23 05:22:13;;;;;;;19.55;14.73;;;10.90;92.30;;;;;;5074207;28;20032;-76
2022/12/23 05:24:39;;;;;;;18.80;14.65;;;10.90;92.20;;;;;;5092452;28;20032;-76
2022/12/23 05:27:04;;;;;;;19.67;14.68;;;10.90;92.20;;;;;;5079519;28;20104;-76
2022/12/23 05:29:30;;;;;;;17.73;13.43;;;10.90;92.30;;;;;;5078750;28;20033;-76
2022/12/23 05:31:56;;;;;;;21.33;12.98;;;10.90;92.20;;;;;;5079497;28;20036;-76
2022/12/23 05:34:21;;;;;;;16.60;13.55;;;10.80;92.20;;;;;;5078303;28;20028;-78
2022/12/23 05:36:47;;;;;;;17.33;12.80;;;10.80;92.20;;;;;;5096753;28;20040;-77
2022/12/23 05:39:13;;;;;;;17.08;12.80;;;10.80;92.20;;;;;;5096524;28;20066;-77
2022/12/23 05:41:39;;;;;;;16.00;12.00;;;10.90;92.20;;;;;;5096358;28;20422;-76
2022/12/23 05:44:04;;;;;;;16.08;12.52;;;10.90;92.20;;;;;;5096242;28;20434;-76
2022/12/23 05:46:30;;;;;;;14.52;12.30;;;10.90;92.20;;;;;;5078046;28;20048;-77
2022/12/23 05:48:56;;;;;;;16.02;12.07;;;10.90;92.20;;;;;;5078076;28;20024;-77
2022/12/23 05:51:21;;;;;;;16.58;11.70;;;10.90;92.20;;;;;;5095941;28;20036;-77
2022/12/23 05:53:47;;;;;;;14.50;11.00;;;10.80;92.20;;;;;;5096270;28;20032;-76
2022/12/23 05:56:13;;;;;;;17.05;12.25;;;10.80;92.20;;;;;;5098961;28;20040;-76
2022/12/23 05:58:39;;;;;;;13.88;11.05;;;10.80;92.20;;;;;;5095953;28;20032;-78
2022/12/23 06:01:04;;;;;;;14.80;11.75;;;10.80;92.10;;;;;;5096208;28;20056;-78
2022/12/23 06:03:30;;;;;;;15.70;11.95;;;10.80;92.20;;;;;;5095958;28;20060;-78
2022/12/23 06:05:56;;;;;;;15.77;11.13;;;10.80;92.10;;;;;;5077766;28;20043;-77
2022/12/23 06:08:21;;;;;;;14.55;10.57;;;10.80;92.20;;;;;;5077693;28;20088;-77
2022/12/23 06:10:48;;;;;;;15.90;11.02;;;10.90;92.20;;;;;;5077545;28;20032;-77
2022/12/23 06:13:13;;;;;;;15.55;10.93;;;10.90;92.00;;;;;;5097664;28;20028;-78
2022/12/23 06:15:39;;;;;;;22.40;11.07;;;10.90;92.10;;;;;;5077421;28;20047;-76
2022/12/23 06:18:05;;;;;;;18.70;11.55;;;10.90;92.20;;;;;;5078786;28;20028;-77
2022/12/23 06:20:31;;;;;;;17.63;10.77;;;10.90;92.20;;;;;;5095623;28;20035;-76
2022/12/23 06:22:56;;;;;;;13.40;10.77;;;10.90;92.20;;;;;;5079312;28;20100;-76
2022/12/23 06:25:22;;;;;;;13.02;10.48;;;10.90;92.10;;;;;;5075694;28;20048;-77
2022/12/23 06:27:48;;;;;;;13.55;10.25;;;10.90;92.20;;;;;;5057810;28;20049;-76
2022/12/23 06:30:14;;;;;;;14.25;10.75;;;10.90;92.20;;;;;;5058088;28;20047;-75
2022/12/23 06:32:40;;;;;;;17.05;10.65;;;10.90;92.20;;;;;;5080321;28;20079;-73
2022/12/23 06:35:07;;;;;;;12.82;10.85;;;10.90;92.20;;;;;;5080010;28;20036;-73
2022/12/23 06:37:33;;;;;;;14.20;10.60;;;10.90;92.10;;;;;;5060569;28;20088;-74
2022/12/23 06:39:59;;;;;;;14.98;10.63;;;10.80;92.30;;;;;;5077279;28;20052;-75
2022/12/23 06:42:24;;;;;;;17.23;11.02;;;10.80;92.20;;;;;;5074981;28;20033;-74
2022/12/23 06:44:50;;;;;;;13.00;10.68;;;10.80;92.10;;;;;;5075274;28;20040;-75
2022/12/23 06:47:16;;;;;;;14.65;11.10;;;10.80;92.20;;;;;;5074859;28;20039;-75
2022/12/23 06:49:42;;;;;;;14.82;10.40;;;10.70;92.20;;;;;;5074632;28;20175;-76
2022/12/23 06:52:08;;;;;;;16.48;12.30;;;10.70;92.20;;;;;;5075343;28;20564;-76
2022/12/23 06:54:34;;;;;;;14.02;11.23;;;10.70;92.30;;;;;;5074716;28;20029;-75
2022/12/23 06:57:00;;;;;;;14.98;11.85;;;10.80;92.30;;;;;;5074620;28;20499;-76
2022/12/23 06:59:26;;;;;;;18.05;11.13;;;10.80;92.30;;;;;;5056438;28;20082;-74
2022/12/23 07:01:52;;;;;;;15.05;11.30;;;10.90;92.20;;;;;;5056663;28;20127;-75
2022/12/23 07:04:18;;;;;;;15.95;11.20;;;10.90;92.10;;;;;;5056359;28;20123;-74
2022/12/23 07:06:43;;;;;;;16.35;11.80;;;11.00;92.10;;;;;;5056157;28;20102;-74
2022/12/23 07:09:10;;;;;;;12.80;10.32;;;11.10;91.90;;;;;;5074424;28;20025;-74
2022/12/23 07:11:35;;;;;;;14.07;10.07;;;11.10;91.90;;;;;;5056325;28;20102;-73
2022/12/23 07:14:01;;;;;;;15.57;10.57;;;11.10;91.90;;;;;;5074365;28;20063;-74
2022/12/23 07:16:27;;;;;;;16.23;10.80;;;11.20;92.00;;;;;;5074291;28;20037;-74
2022/12/23 07:18:53;;;;;;;16.48;11.02;;;11.10;91.70;;;;;;5074020;28;20024;-75
2022/12/23 07:21:18;;;;;;;14.10;10.80;;;11.10;91.70;;;;;;5056176;28;20046;-73
2022/12/23 07:23:44;;;;;;;16.80;11.85;;;11.10;91.80;;;;;;5056507;28;20033;-73
2022/12/23 07:26:10;;;;;;;15.98;10.30;;;11.20;91.70;;;;;;5056148;28;20044;-76
2022/12/23 07:28:36;;;;;;;15.50;10.63;;;11.20;91.80;;;;;;5073498;28;20197;-74
2022/12/23 07:31:05;;;;;;;15.18;10.00;;;11.30;91.60;;;;;;5055277;28;20055;-75
2022/12/23 07:33:31;;;;;;;13.85;10.35;;;11.40;91.70;;;;;;5055383;28;20029;-76
2022/12/23 07:35:57;;;;;;;14.90;9.68;;;11.40;91.60;;;;;;5073382;28;20457;-75
2022/12/23 07:38:23;;;;;;;14.20;10.45;;;11.60;91.80;;;;;;5055522;28;20028;-74
2022/12/23 07:40:49;;;;;;;14.23;9.23;;;11.70;91.30;;;;;;5055287;28;20131;-75
2022/12/23 07:43:14;;;;;;;13.05;9.63;;;11.80;91.20;;;;;;5073592;28;20037;-75
2022/12/23 07:45:40;;;;;;;13.75;9.93;;;11.80;91.10;;;;;;5073720;28;20404;-73
2022/12/23 07:48:07;;;;;;;14.80;9.75;;;11.90;91.00;;;;;;5055218;28;20028;-72
2022/12/23 07:50:33;;;;;;;14.15;9.38;;;11.90;90.90;;;;;;5055348;28;20106;-73
2022/12/23 07:52:59;;;;;;;13.13;9.80;;;12.00;90.90;;;;;;5073251;28;20029;-73
2022/12/23 07:55:25;;;;;;;14.85;10.18;;;11.90;90.90;;;;;;5073598;28;20112;-75
2022/12/23 07:57:52;;;;;;;16.02;10.35;;;12.00;91.00;;;;;;5073241;28;20106;-76
2022/12/23 08:00:19;;;;;;;18.60;11.30;;;12.10;90.90;;;;;;5075496;28;20119;-73
2022/12/23 08:02:45;;;;;;;14.73;10.68;;;12.10;90.70;;;;;;5085924;28;20029;-75
2022/12/23 08:05:12;;;;;;;17.08;9.52;;;12.20;90.70;;;;;;5074645;28;20044;-75
2022/12/23 08:07:38;;;;;;;13.45;9.70;;;12.20;90.60;;;;;;5055206;28;20035;-73
2022/12/23 08:10:05;;;;;;;16.05;10.65;;;12.30;90.60;;;;;;5073051;28;20037;-77
2022/12/23 08:12:31;;;;;;;17.17;11.20;;;12.30;90.60;;;;;;5072673;28;20025;-74
2022/12/23 08:14:57;;;;;;;17.92;9.93;;;12.30;90.40;;;;;;5083860;28;20399;-74
2022/12/23 08:17:27;;;;;;;13.60;9.95;;;12.40;90.30;;;;;;5073433;28;20032;-72
2022/12/23 08:19:52;;;;;;;14.80;10.27;;;12.40;90.30;;;;;;5072670;28;20032;-73
2022/12/23 08:22:18;;;;;;;17.92;11.05;;;12.50;90.30;;;;;;5055142;28;20086;-74
2022/12/23 08:24:44;;;;;;;18.55;11.20;;;12.50;90.10;;;;;;5080710;28;20069;-73
2022/12/23 08:27:10;;;;;;;27.75;11.68;;;12.40;90.00;;;;;;5084021;28;20032;-73
2022/12/23 08:29:39;;;;;;;15.85;10.60;;;12.40;89.90;;;;;;5075271;28;20132;-73
2022/12/23 08:32:05;;;;;;;16.70;11.00;;;12.40;90.40;;;;;;5084489;28;20032;-72
2022/12/23 08:34:31;;;;;;;18.92;10.82;;;12.40;90.10;;;;;;5072987;28;20028;-72
2022/12/23 08:36:57;;;;;;;13.50;10.20;;;12.50;90.00;;;;;;5074804;28;20067;-73
2022/12/23 08:39:23;;;;;;;14.95;10.38;;;12.60;89.90;;;;;;5074987;28;20105;-70
2022/12/23 08:41:48;;;;;;;12.93;9.90;;;12.70;90.00;;;;;;5093747;28;20032;-72
2022/12/23 08:44:16;;;;;;;19.90;10.88;;;12.70;89.80;;;;;;5093142;28;20108;-73
2022/12/23 08:46:42;;;;;;;17.45;10.32;;;12.70;89.90;;;;;;5086370;28;20068;-71
2022/12/23 08:49:08;;;;;;;17.83;11.13;;;12.60;90.00;;;;;;5069956;28;20509;-73
2022/12/23 08:51:34;;;;;;;15.30;10.02;;;12.60;90.00;;;;;;5091571;28;20028;-72
2022/12/23 08:54:00;;;;;;;14.50;9.90;;;12.60;90.00;;;;;;5092417;28;20124;-73
2022/12/23 08:56:29;;;;;;;14.15;8.98;;;12.70;90.00;;;;;;5074262;28;20062;-74
2022/12/23 08:58:55;;;;;;;13.07;10.00;;;12.70;90.00;;;;;;5092523;28;20058;-72
2022/12/23 09:01:24;;;;;;;16.88;9.52;;;12.80;89.80;;;;;;5073768;28;20118;-74
2022/12/23 09:03:52;;;;;;;17.40;10.10;;;12.90;89.50;;;;;;5092119;28;20027;-74
2022/12/23 09:06:27;;;;;;;15.52;9.98;;;13.00;89.50;;;;;;5092486;28;20177;-71
2022/12/23 09:08:53;;;;;;;15.52;10.05;;;13.10;89.20;;;;;;5092202;28;20040;-73
2022/12/23 09:11:22;;;;;;;14.27;10.15;;;13.20;88.80;;;;;;5092306;28;20032;-72
2022/12/23 09:13:48;;;;;;;16.88;10.48;;;13.20;88.60;;;;;;5073934;28;20036;-72
2022/12/23 09:16:14;;;;;;;18.35;10.23;;;13.20;88.50;;;;;;5092207;28;20333;-72
2022/12/23 09:18:40;;;;;;;16.02;10.48;;;13.30;88.60;;;;;;5073805;28;20057;-72
2022/12/23 09:21:12;;;;;;;17.50;10.27;;;13.30;88.30;;;;;;5073667;28;20142;-72
2022/12/23 09:23:39;;;;;;;12.45;9.52;;;13.30;88.40;;;;;;5073411;28;20024;-73
2022/12/23 09:26:06;;;;;;;16.23;9.93;;;13.20;88.30;;;;;;5091801;28;20044;-73
2022/12/23 09:28:31;;;;;;;38.22;11.38;;;13.20;88.40;;;;;;5073469;28;20047;-72
2022/12/23 09:30:57;;;;;;;23.33;11.00;;;13.30;88.50;;;;;;5091730;28;20040;-75
2022/12/23 09:33:23;;;;;;;16.52;9.63;;;13.30;88.20;;;;;;5073561;28;20136;-74
2022/12/23 09:35:50;;;;;;;19.50;10.20;;;13.30;88.20;;;;;;5073701;28;20070;-73
2022/12/23 09:38:15;;;;;;;17.65;9.15;;;13.40;87.50;;;;;;5092076;28;20028;-73
2022/12/23 09:40:41;;;;;;;15.70;9.40;;;13.50;87.50;;;;;;5091541;28;20081;-74
2022/12/23 09:43:20;;;;;;;13.88;8.75;;;13.60;87.50;;;;;;5091397;28;20043;-74
2022/12/23 09:46:34;;;;;;;16.58;9.45;;;13.70;86.60;;;;;;5090374;28;20051;-72
2022/12/23 09:49:04;;;;;;;18.38;10.60;;;13.80;86.40;;;;;;5068553;28;20071;-73
2022/12/23 09:51:32;;;;;;;16.27;10.70;;;13.90;87.00;;;;;;5091298;28;20519;-72
2022/12/23 09:54:18;;;;;;;15.23;9.88;;;13.90;86.60;;;;;;5091228;28;20059;-73
2022/12/23 09:56:50;;;;;;;21.63;11.20;;;13.90;86.00;;;;;;5091577;28;20042;-73
2022/12/23 09:59:40;;;;;;;12.25;7.97;;;14.00;86.00;;;;;;5073632;28;20036;-73
2022/12/23 10:02:11;;;;;;;12.63;8.88;;;13.90;85.50;;;;;;5091943;28;20136;-73
2022/12/23 10:04:58;;;;;;;15.30;8.98;;;14.00;85.50;;;;;;5073275;28;20067;-72
2022/12/23 10:07:41;;;;;;;16.42;9.02;;;14.20;85.40;;;;;;5091518;28;20044;-73
2022/12/23 10:10:33;;;;;;;11.70;8.27;;;14.30;85.10;;;;;;5073942;28;20032;-74
2022/12/23 10:13:02;;;;;;;17.00;8.73;;;14.40;85.20;;;;;;5095159;28;20032;-73
2022/12/23 10:15:43;;;;;;;16.05;9.27;;;14.50;85.00;;;;;;5096212;28;20089;-72
2022/12/23 10:18:40;;;;;;;16.55;9.40;;;14.60;84.70;;;;;;5096215;28;20416;-73
2022/12/23 10:21:17;;;;;;;12.85;9.25;;;14.70;84.10;;;;;;5094230;28;20121;-72
2022/12/23 10:23:47;;;;;;;14.88;9.73;;;14.70;83.80;;;;;;5077565;28;20035;-73
2022/12/23 10:26:23;;;;;;;17.92;10.27;;;14.70;83.80;;;;;;5095669;28;20040;-73
2022/12/23 10:29:04;;;;;;;18.42;9.52;;;14.80;84.10;;;;;;5095442;28;20052;-73
2022/12/23 10:31:51;;;;;;;15.18;9.80;;;14.80;83.80;;;;;;5077399;28;20088;-76
2022/12/23 10:34:28;;;;;;;17.15;9.32;;;14.90;83.30;;;;;;5096076;28;20036;-73
2022/12/23 10:37:06;;;;;;;14.40;8.75;;;14.90;83.30;;;;;;5096017;28;20039;-76
2022/12/23 10:39:44;;;;;;;18.20;9.02;;;14.90;82.70;;;;;;5096936;28;20036;-74
2022/12/23 10:42:15;;;;;;;15.77;9.27;;;15.00;83.10;;;;;;5094704;28;20397;-74
2022/12/23 10:45:08;;;;;;;18.48;9.88;;;15.00;82.60;;;;;;5096098;28;20484;-73
2022/12/23 10:47:47;;;;;;;17.05;9.50;;;15.00;82.70;;;;;;5096196;28;20040;-73
2022/12/23 10:50:13;;;;;;;14.43;9.75;;;14.90;82.90;;;;;;5096239;28;20387;-72
2022/12/23 10:52:41;;;;;;;16.65;12.27;;;14.90;82.70;;;;;;5095190;28;20032;-73
2022/12/23 10:55:26;;;;;;;17.33;11.57;;;14.90;82.70;;;;;;5094980;28;20040;-74
2022/12/23 10:57:52;;;;;;;12.10;8.70;;;14.90;82.70;;;;;;5096076;28;20036;-73
2022/12/23 11:00:22;;;;;;;11.88;8.10;;;14.90;83.10;;;;;;5079161;28;20495;-74
2022/12/23 11:03:17;;;;;;;14.75;9.20;;;14.80;82.40;;;;;;5095958;28;20040;-73
2022/12/23 11:05:45;;;;;;;11.82;8.40;;;14.90;82.80;;;;;;5094993;28;20040;-73
2022/12/23 11:08:11;;;;;;;11.70;9.57;;;14.90;82.90;;;;;;5077134;28;20024;-73
2022/12/23 11:10:38;;;;;;;12.63;9.45;;;14.90;82.70;;;;;;5095230;28;20036;-73
2022/12/23 11:13:04;;;;;;;17.25;10.52;;;15.10;82.20;;;;;;5076754;28;20141;-73
2022/12/23 11:15:30;;;;;;;14.10;9.88;;;15.10;81.90;;;;;;5094633;28;20501;-73
2022/12/23 11:18:05;;;;;;;16.90;10.50;;;15.10;81.80;;;;;;5095206;28;20032;-73
2022/12/23 11:20:33;;;;;;;16.67;10.60;;;15.10;82.20;;;;;;5095102;28;20115;-72
2022/12/23 11:23:01;;;;;;;18.63;10.43;;;15.10;81.80;;;;;;5093774;28;20059;-73
2022/12/23 11:25:39;;;;;;;13.05;9.80;;;15.10;81.80;;;;;;5075588;28;20043;-73
2022/12/23 11:28:10;;;;;;;18.27;9.75;;;15.10;82.60;;;;;;5075750;28;20044;-73
2022/12/23 11:30:54;;;;;;;16.45;10.45;;;15.20;82.50;;;;;;5094189;28;20506;-73
2022/12/23 11:33:31;;;;;;;14.93;10.20;;;15.20;82.60;;;;;;5094136;28;20036;-73
2022/12/23 11:36:06;;;;;;;16.73;10.60;;;15.30;81.80;;;;;;5094170;28;20028;-74
2022/12/23 11:38:34;;;;;;;24.42;10.43;;;15.30;82.40;;;;;;5094273;28;20036;-73
2022/12/23 11:41:00;;;;;;;17.88;10.07;;;15.40;81.60;;;;;;5093985;28;20032;-73
2022/12/23 11:43:27;;;;;;;15.35;9.45;;;15.50;81.60;;;;;;5075233;28;20115;-73
2022/12/23 11:46:22;;;;;;;17.08;9.23;;;15.50;81.40;;;;;;5093697;28;20396;-73
2022/12/23 11:48:48;;;;;;;19.00;9.60;;;15.60;81.30;;;;;;5093443;28;20032;-73
2022/12/23 11:51:24;;;;;;;18.65;10.02;;;15.70;81.50;;;;;;5075044;28;20077;-72
2022/12/23 11:53:59;;;;;;;14.18;9.93;;;15.80;81.50;;;;;;5074714;28;20392;-73
2022/12/23 11:56:25;;;;;;;16.05;10.20;;;15.90;81.10;;;;;;5075105;28;20036;-74
2022/12/23 11:59:04;;;;;;;19.48;9.52;;;15.90;80.90;;;;;;5093418;28;20396;-74
2022/12/23 12:01:31;;;;;;;14.18;9.85;;;16.00;81.10;;;;;;5093220;28;20044;-74
2022/12/23 12:04:00;;;;;;;16.95;10.13;;;16.00;80.90;;;;;;5093320;28;20036;-73
2022/12/23 12:06:27;;;;;;;16.05;9.88;;;16.00;80.80;;;;;;5074830;28;20157;-72
2022/12/23 12:08:57;;;;;;;13.00;10.00;;;16.10;81.60;;;;;;5092962;28;20051;-72
2022/12/23 12:11:30;;;;;;;18.45;10.73;;;16.20;81.20;;;;;;5093177;28;20032;-73
2022/12/23 12:14:03;;;;;;;16.40;7.95;;;16.30;80.80;;;;;;5074626;28;20036;-73
2022/12/23 12:16:57;;;;;;;17.52;10.25;;;16.50;80.90;;;;;;5092970;28;20039;-72
2022/12/23 12:19:49;;;;;;;38.63;29.38;;;16.60;80.30;;;;;;5093236;28;20043;-72
2022/12/23 12:22:34;;;;;;;25.23;10.82;;;16.80;80.20;;;;;;5094232;28;20171;-73
2022/12/23 12:25:26;;;;;;;15.52;10.05;;;16.90;80.10;;;;;;5075129;28;20062;-72
2022/12/23 12:27:58;;;;;;;12.80;9.00;;;16.90;80.00;;;;;;5063878;28;20117;-73
2022/12/23 12:30:30;;;;;;;19.30;10.43;;;16.90;80.10;;;;;;5074795;28;20060;-73
2022/12/23 12:33:04;;;;;;;17.88;8.98;;;17.00;80.10;;;;;;5092584;28;20111;-71
2022/12/23 12:35:42;;;;;;;12.65;8.02;;;17.00;79.70;;;;;;5073578;28;20032;-73
2022/12/23 12:38:16;;;;;;;14.82;8.40;;;17.10;79.90;;;;;;5074475;28;20035;-74
2022/12/23 12:40:49;;;;;;;16.75;7.38;;;17.10;80.00;;;;;;5092708;28;20032;-73
2022/12/23 12:43:30;;;;;;;13.32;7.20;;;17.10;80.10;;;;;;5093022;28;20093;-73
2022/12/23 12:46:30;;;;;;;19.50;8.15;;;17.10;80.10;;;;;;5092422;28;20444;-72
2022/12/23 12:49:03;;;;;;;14.50;6.82;;;17.10;80.00;;;;;;5074765;28;20193;-73
2022/12/23 12:52:16;;;;;;;19.67;7.78;;;17.20;80.00;;;;;;5074445;28;20046;-73
2022/12/23 12:54:54;;;;;;;14.05;7.03;;;17.20;80.00;;;;;;5072676;28;20039;-73
2022/12/23 12:57:22;;;;;;;13.30;6.45;;;17.30;79.90;;;;;;5074621;28;20135;-73
2022/12/23 12:59:52;;;;;;;14.15;6.63;;;17.30;79.80;;;;;;5093059;28;20084;-73
2022/12/23 13:02:24;;;;;;;15.65;6.90;;;17.30;79.90;;;;;;5092885;28;20486;-74
2022/12/23 13:05:11;;;;;;;17.38;7.65;;;17.40;79.60;;;;;;5092854;28;20028;-73
2022/12/23 13:08:11;;;;;;;13.25;7.63;;;17.40;79.70;;;;;;5074563;28;20046;-72
2022/12/23 13:10:46;;;;;;;14.65;7.55;;;17.40;79.60;;;;;;5074845;28;20044;-72
2022/12/23 13:13:29;;;;;;;14.60;7.55;;;17.50;79.60;;;;;;5092905;28;20036;-73
2022/12/23 13:16:09;;;;;;;13.80;7.13;;;17.50;79.50;;;;;;5093064;28;20054;-73
2022/12/23 13:18:58;;;;;;;16.83;7.53;;;17.50;79.30;;;;;;5092297;28;20074;-73
2022/12/23 13:21:43;;;;;;;14.27;8.00;;;17.60;79.40;;;;;;5092216;28;20031;-73
2022/12/23 13:24:38;;;;;;;14.90;7.10;;;17.60;79.00;;;;;;5092513;28;20387;-72
2022/12/23 13:27:16;;;;;;;12.82;6.85;;;17.60;78.80;;;;;;5074017;28;20040;-74
2022/12/23 13:29:48;;;;;;;17.48;6.82;;;17.60;78.90;;;;;;5075040;28;20048;-74
2022/12/23 13:32:38;;;;;;;11.85;6.20;;;17.60;78.50;;;;;;5093010;28;20055;-74
2022/12/23 13:35:32;;;;;;;15.48;6.30;;;17.70;78.10;;;;;;5092982;28;20426;-72
2022/12/23 13:38:19;;;;;;;15.45;6.47;;;17.70;78.20;;;;;;5092795;28;20111;-73
2022/12/23 13:41:19;;;;;;;14.88;6.85;;;17.60;78.30;;;;;;5092671;28;20384;-75
2022/12/23 13:43:58;;;;;;;14.50;6.43;;;17.60;78.50;;;;;;5074338;28;20598;-73
2022/12/23 13:46:33;;;;;;;13.10;5.82;;;17.60;78.80;;;;;;5075922;28;20044;-72
2022/12/23 13:49:07;;;;;;;15.15;5.60;;;17.60;78.30;;;;;;5078504;28;20340;-73
2022/12/23 13:52:09;;;;;;;12.95;5.88;;;17.70;78.30;;;;;;5096664;28;20490;-73
2022/12/23 13:54:55;;;;;;;13.07;4.82;;;17.70;77.70;;;;;;5044888;28;20020;-73
2022/12/23 13:57:57;;;;;;;12.27;5.53;;;17.80;77.60;;;;;;5078714;28;20028;-74
2022/12/23 14:00:29;;;;;;;13.32;5.38;;;17.90;77.30;;;;;;5096826;28;20090;-74
2022/12/23 14:03:00;;;;;;;15.07;6.90;;;18.20;76.60;;;;;;5078358;28;20032;-72
2022/12/23 14:05:44;;;;;;;16.23;6.60;;;18.10;76.30;;;;;;5096690;28;20097;-73
2022/12/23 14:08:18;;;;;;;13.43;6.60;;;18.10;76.40;;;;;;5093949;28;20094;-73
2022/12/23 14:11:01;;;;;;;13.40;6.22;;;18.00;76.70;;;;;;5096145;28;20043;-72
2022/12/23 18:18:29;;;;;;;38.42;22.90;;;14.40;87.60;;;;;;5089030;28;20158;-70
2022/12/23 18:20:56;;;;;;;35.88;22.38;;;14.40;88.10;;;;;;5088317;28;20036;-74
2022/12/23 18:23:27;;;;;;;39.17;21.85;;;14.40;88.10;;;;;;5072951;28;20043;-74
2022/12/23 18:25:54;;;;;;;47.28;29.50;;;14.40;88.60;;;;;;5085031;28;20040;-75
2022/12/23 18:28:20;;;;;;;41.25;24.08;;;14.40;88.80;;;;;;5079468;28;20090;-75
2022/12/23 18:30:46;;;;;;;40.72;22.38;;;14.40;88.90;;;;;;5071114;28;20094;-74
2022/12/23 18:33:12;;;;;;;36.78;22.42;;;14.40;89.00;;;;;;5074034;28;20036;-76
2022/12/23 18:35:42;;;;;;;42.58;23.55;;;14.30;89.20;;;;;;5057041;28;20043;-75
2022/12/23 18:38:09;;;;;;;34.92;21.67;;;14.30;89.40;;;;;;5056485;28;20034;-75
2022/12/23 18:40:35;;;;;;;43.63;22.73;;;14.30;89.70;;;;;;5066496;28;20037;-75
2022/12/23 18:43:01;;;;;;;35.08;21.15;;;14.30;89.70;;;;;;5062936;28;20036;-74
2022/12/23 18:45:38;;;;;;;37.40;23.10;;;14.30;89.90;;;;;;5073938;28;20377;-76
2022/12/23 18:48:06;;;;;;;38.97;23.38;;;14.30;90.00;;;;;;5056405;28;20578;-72
2022/12/23 18:50:34;;;;;;;33.90;22.83;;;14.20;90.00;;;;;;5073885;28;20180;-72
2022/12/23 18:53:00;;;;;;;42.80;24.17;;;14.20;90.10;;;;;;5093076;28;20036;-75
2022/12/23 18:55:29;;;;;;;36.78;22.42;;;14.20;90.10;;;;;;5092543;28;20036;-73
2022/12/23 18:57:55;;;;;;;38.95;24.08;;;14.20;90.30;;;;;;5071877;28;20036;-75
2022/12/23 19:00:24;;;;;;;32.88;22.35;;;14.20;90.20;;;;;;5094160;28;20051;-79
2022/12/23 19:02:51;;;;;;;44.13;27.27;;;14.20;90.20;;;;;;5076287;28;20381;-77
2022/12/23 19:05:20;;;;;;;40.10;25.20;;;14.20;90.30;;;;;;5075861;28;20474;-80
2022/12/23 19:07:48;;;;;;;39.20;23.95;;;14.20;90.30;;;;;;5093804;28;20091;-76
2022/12/23 19:10:20;;;;;;;37.97;23.30;;;14.20;90.40;;;;;;5075839;28;20028;-77
2022/12/23 19:12:45;;;;;;;37.35;22.00;;;14.10;90.20;;;;;;5094634;28;20054;-77
2022/12/23 19:15:12;;;;;;;30.05;20.80;;;14.10;90.40;;;;;;5076426;28;20111;-76
2022/12/23 19:17:38;;;;;;;36.85;21.13;;;14.10;90.40;;;;;;5094107;28;20059;-76
2022/12/23 19:20:06;;;;;;;32.10;20.92;;;14.00;90.40;;;;;;5093951;28;20367;-77
2022/12/23 19:22:31;;;;;;;30.65;19.58;;;14.00;90.40;;;;;;5093291;28;20126;-76
2022/12/23 19:24:57;;;;;;;30.48;19.23;;;14.00;90.60;;;;;;5094146;28;20028;-77